sensor_id;sensor_type;location;lat;lon;timestamp;temperature;humidity
30134;DHT22;16946;49.984;10.672;2023-02-17T00:00:08;3.40;99.90
30134;DHT22;16946;49.984;10.672;2023-02-17T00:00:40;3.40;99.90
30134;DHT22;16946;49.984;10.672;2023-02-17T00:01:20;3.30;99.90
30134;DHT22;16946;49.984;10.672;2023-02-17T00:01:51;3.40;99.90
30134;DHT22;16946;49.984;10.672;2023-02-17T00:02:22;3.40;99.90
30134;DHT22;16946;49.984;10.672;2023-02-17T00:02:56;3.40;99.90
30134;DHT22;16946;49.984;10.672;2023-02-17T00:03:27;3.40;99.90
30134;DHT22;16946;49.984;10.672;2023-02-17T00:03:58;3.40;99.90
30134;DHT22;16946;49.984;10.672;2023-02-17T00:04:33;3.40;99.90
30134;DHT22;16946;49.984;10.672;2023-02-17T00:05:05;3.40;99.90
30134;DHT22;16946;49.984;10.672;2023-02-17T00:05:38;3.40;99.90
30134;DHT22;16946;49.984;10.672;2023-02-17T00:06:10;3.40;99.90
30134;DHT22;16946;49.984;10.672;2023-02-17T00:06:40;3.40;99.90
30134;DHT22;16946;49.984;10.672;2023-02-17T00:07:11;3.50;99.90
30134;DHT22;16946;49.984;10.672;2023-02-17T00:07:41;3.50;99.90
30134;DHT22;16946;49.984;10.672;2023-02-17T00:08:12;3.50;99.90
30134;DHT22;16946;49.984;10.672;2023-02-17T00:08:43;3.50;99.90
30134;DHT22;16946;49.984;10.672;2023-02-17T00:09:14;3.50;99.90
30134;DHT22;16946;49.984;10.672;2023-02-17T00:09:45;3.40;99.90
30134;DHT22;16946;49.984;10.672;2023-02-17T00:10:15;3.50;99.90
30134;DHT22;16946;49.984;10.672;2023-02-17T00:10:57;3.50;99.90
30134;DHT22;16946;49.984;10.672;2023-02-17T00:11:28;3.60;99.90
30134;DHT22;16946;49.984;10.672;2023-02-17T00:11:58;3.60;99.90
30134;DHT22;16946;49.984;10.672;2023-02-17T00:12:29;3.60;99.90
30134;DHT22;16946;49.984;10.672;2023-02-17T00:13:00;3.60;99.90
30134;DHT22;16946;49.984;10.672;2023-02-17T00:13:30;3.60;99.90
30134;DHT22;16946;49.984;10.672;2023-02-17T00:14:01;3.60;99.90
30134;DHT22;16946;49.984;10.672;2023-02-17T00:14:31;3.60;99.90
30134;DHT22;16946;49.984;10.672;2023-02-17T00:15:02;3.60;99.90
30134;DHT22;16946;49.984;10.672;2023-02-17T00:15:33;3.60;99.90
30134;DHT22;16946;49.984;10.672;2023-02-17T00:16:14;3.60;99.90
30134;DHT22;16946;49.984;10.672;2023-02-17T00:16:45;3.50;99.90
30134;DHT22;16946;49.984;10.672;2023-02-17T00:17:16;3.50;99.90
30134;DHT22;16946;49.984;10.672;2023-02-17T00:17:46;3.50;99.90
30134;DHT22;16946;49.984;10.672;2023-02-17T00:18:17;3.60;99.90
30134;DHT22;16946;49.984;10.672;2023-02-17T00:18:52;3.60;99.90
30134;DHT22;16946;49.984;10.672;2023-02-17T00:19:23;3.60;99.90
30134;DHT22;16946;49.984;10.672;2023-02-17T00:19:54;3.70;99.90
30134;DHT22;16946;49.984;10.672;2023-02-17T00:20:25;3.70;99.90
30134;DHT22;16946;49.984;10.672;2023-02-17T00:20:55;3.70;99.90
30134;DHT22;16946;49.984;10.672;2023-02-17T00:21:29;3.60;99.90
30134;DHT22;16946;49.984;10.672;2023-02-17T00:22:00;3.60;99.90
30134;DHT22;16946;49.984;10.672;2023-02-17T00:22:31;3.60;99.90
30134;DHT22;16946;49.984;10.672;2023-02-17T00:23:01;3.60;99.90
30134;DHT22;16946;49.984;10.672;2023-02-17T00:23:32;3.70;99.90
30134;DHT22;16946;49.984;10.672;2023-02-17T00:24:02;3.70;99.90
30134;DHT22;16946;49.984;10.672;2023-02-17T00:24:37;3.80;99.90
30134;DHT22;16946;49.984;10.672;2023-02-17T00:25:07;3.80;99.90
30134;DHT22;16946;49.984;10.672;2023-02-17T00:25:38;3.90;99.90
30134;DHT22;16946;49.984;10.672;2023-02-17T00:26:09;3.90;99.90
30134;DHT22;16946;49.984;10.672;2023-02-17T00:26:39;3.90;99.90
30134;DHT22;16946;49.984;10.672;2023-02-17T00:27:10;3.90;99.90
30134;DHT22;16946;49.984;10.672;2023-02-17T00:27:40;3.90;99.90
30134;DHT22;16946;49.984;10.672;2023-02-17T00:28:11;4.00;99.90
30134;DHT22;16946;49.984;10.672;2023-02-17T00:28:42;4.00;99.90
30134;DHT22;16946;49.984;10.672;2023-02-17T00:29:13;4.10;99.90
30134;DHT22;16946;49.984;10.672;2023-02-17T00:29:44;4.10;99.90
30134;DHT22;16946;49.984;10.672;2023-02-17T00:30:15;4.10;99.90
30134;DHT22;16946;49.984;10.672;2023-02-17T00:30:46;4.10;99.90
30134;DHT22;16946;49.984;10.672;2023-02-17T00:31:19;4.00;99.90
30134;DHT22;16946;49.984;10.672;2023-02-17T00:31:53;4.00;99.90
30134;DHT22;16946;49.984;10.672;2023-02-17T00:32:24;4.10;99.90
30134;DHT22;16946;49.984;10.672;2023-02-17T00:32:54;4.10;99.90
30134;DHT22;16946;49.984;10.672;2023-02-17T00:33:25;4.10;99.90
30134;DHT22;16946;49.984;10.672;2023-02-17T00:33:56;4.10;99.90
30134;DHT22;16946;49.984;10.672;2023-02-17T00:34:26;4.10;99.90
30134;DHT22;16946;49.984;10.672;2023-02-17T00:34:57;4.20;99.90
30134;DHT22;16946;49.984;10.672;2023-02-17T00:35:28;4.30;99.90
30134;DHT22;16946;49.984;10.672;2023-02-17T00:36:00;4.40;99.90
30134;DHT22;16946;49.984;10.672;2023-02-17T00:36:31;4.40;99.90
30134;DHT22;16946;49.984;10.672;2023-02-17T00:37:02;4.40;99.90
30134;DHT22;16946;49.984;10.672;2023-02-17T00:37:34;4.40;99.90
30134;DHT22;16946;49.984;10.672;2023-02-17T00:38:04;4.40;99.90
30134;DHT22;16946;49.984;10.672;2023-02-17T00:38:35;4.40;99.90
30134;DHT22;16946;49.984;10.672;2023-02-17T00:39:06;4.40;99.90
30134;DHT22;16946;49.984;10.672;2023-02-17T00:39:36;4.40;99.90
30134;DHT22;16946;49.984;10.672;2023-02-17T00:40:07;4.30;99.90
30134;DHT22;16946;49.984;10.672;2023-02-17T00:40:38;4.40;99.90
30134;DHT22;16946;49.984;10.672;2023-02-17T00:41:08;4.40;99.90
30134;DHT22;16946;49.984;10.672;2023-02-17T00:41:39;4.50;99.90
30134;DHT22;16946;49.984;10.672;2023-02-17T00:42:10;4.50;99.90
30134;DHT22;16946;49.984;10.672;2023-02-17T00:42:41;4.60;99.90
30134;DHT22;16946;49.984;10.672;2023-02-17T00:43:11;4.60;99.90
30134;DHT22;16946;49.984;10.672;2023-02-17T00:43:43;4.70;99.90
30134;DHT22;16946;49.984;10.672;2023-02-17T00:44:16;4.80;99.90
30134;DHT22;16946;49.984;10.672;2023-02-17T00:44:47;4.80;99.90
30134;DHT22;16946;49.984;10.672;2023-02-17T00:45:18;4.80;99.90
30134;DHT22;16946;49.984;10.672;2023-02-17T00:45:48;4.80;99.90
30134;DHT22;16946;49.984;10.672;2023-02-17T00:46:19;4.80;99.90
30134;DHT22;16946;49.984;10.672;2023-02-17T00:46:50;4.80;99.90
30134;DHT22;16946;49.984;10.672;2023-02-17T00:47:20;4.70;99.90
30134;DHT22;16946;49.984;10.672;2023-02-17T00:47:51;4.70;99.90
30134;DHT22;16946;49.984;10.672;2023-02-17T00:48:22;4.70;99.90
30134;DHT22;16946;49.984;10.672;2023-02-17T00:48:53;4.70;99.90
30134;DHT22;16946;49.984;10.672;2023-02-17T00:49:25;4.70;99.90
30134;DHT22;16946;49.984;10.672;2023-02-17T00:49:56;4.80;99.90
30134;DHT22;16946;49.984;10.672;2023-02-17T00:50:26;4.70;99.90
30134;DHT22;16946;49.984;10.672;2023-02-17T00:50:57;4.80;99.90
30134;DHT22;16946;49.984;10.672;2023-02-17T00:51:27;4.80;99.90
30134;DHT22;16946;49.984;10.672;2023-02-17T00:51:59;4.70;99.90
30134;DHT22;16946;49.984;10.672;2023-02-17T00:52:33;4.80;99.90
30134;DHT22;16946;49.984;10.672;2023-02-17T00:53:04;4.80;99.90
30134;DHT22;16946;49.984;10.672;2023-02-17T00:53:34;4.80;99.90
30134;DHT22;16946;49.984;10.672;2023-02-17T00:54:05;4.90;99.90
30134;DHT22;16946;49.984;10.672;2023-02-17T00:54:36;4.90;99.90
30134;DHT22;16946;49.984;10.672;2023-02-17T00:55:06;4.90;99.90
30134;DHT22;16946;49.984;10.672;2023-02-17T00:55:37;5.00;99.90
30134;DHT22;16946;49.984;10.672;2023-02-17T00:56:08;5.00;99.90
30134;DHT22;16946;49.984;10.672;2023-02-17T00:56:39;5.00;99.90
30134;DHT22;16946;49.984;10.672;2023-02-17T00:57:10;5.00;99.90
30134;DHT22;16946;49.984;10.672;2023-02-17T00:57:41;5.00;99.90
30134;DHT22;16946;49.984;10.672;2023-02-17T00:58:11;4.90;99.90
30134;DHT22;16946;49.984;10.672;2023-02-17T00:58:42;4.90;99.90
30134;DHT22;16946;49.984;10.672;2023-02-17T00:59:12;4.90;99.90
30134;DHT22;16946;49.984;10.672;2023-02-17T00:59:43;4.90;99.90
30134;DHT22;16946;49.984;10.672;2023-02-17T01:00:14;4.90;99.90
30134;DHT22;16946;49.984;10.672;2023-02-17T01:00:44;4.90;99.90
30134;DHT22;16946;49.984;10.672;2023-02-17T01:01:15;4.80;99.90
30134;DHT22;16946;49.984;10.672;2023-02-17T01:01:46;4.80;99.90
30134;DHT22;16946;49.984;10.672;2023-02-17T01:02:16;4.90;99.90
30134;DHT22;16946;49.984;10.672;2023-02-17T01:02:47;4.90;99.90
30134;DHT22;16946;49.984;10.672;2023-02-17T01:03:18;4.90;99.90
30134;DHT22;16946;49.984;10.672;2023-02-17T01:03:48;4.90;99.90
30134;DHT22;16946;49.984;10.672;2023-02-17T01:04:19;4.90;99.90
30134;DHT22;16946;49.984;10.672;2023-02-17T01:04:49;4.90;99.90
30134;DHT22;16946;49.984;10.672;2023-02-17T01:05:20;4.80;99.90
30134;DHT22;16946;49.984;10.672;2023-02-17T01:05:51;4.80;99.90
30134;DHT22;16946;49.984;10.672;2023-02-17T01:06:24;4.80;99.90
30134;DHT22;16946;49.984;10.672;2023-02-17T01:06:55;4.80;99.90
30134;DHT22;16946;49.984;10.672;2023-02-17T01:07:26;4.80;99.90
30134;DHT22;16946;49.984;10.672;2023-02-17T01:07:56;4.80;99.90
30134;DHT22;16946;49.984;10.672;2023-02-17T01:08:27;4.80;99.90
30134;DHT22;16946;49.984;10.672;2023-02-17T01:08:58;4.90;99.90
30134;DHT22;16946;49.984;10.672;2023-02-17T01:09:28;5.00;99.90
30134;DHT22;16946;49.984;10.672;2023-02-17T01:09:59;5.00;99.90
30134;DHT22;16946;49.984;10.672;2023-02-17T01:10:29;5.00;99.90
30134;DHT22;16946;49.984;10.672;2023-02-17T01:11:00;5.10;99.90
30134;DHT22;16946;49.984;10.672;2023-02-17T01:11:31;5.10;99.90
30134;DHT22;16946;49.984;10.672;2023-02-17T01:12:03;5.10;99.90
30134;DHT22;16946;49.984;10.672;2023-02-17T01:12:33;5.20;99.90
30134;DHT22;16946;49.984;10.672;2023-02-17T01:13:05;5.20;99.90
30134;DHT22;16946;49.984;10.672;2023-02-17T01:13:35;5.30;99.90
30134;DHT22;16946;49.984;10.672;2023-02-17T01:14:06;5.30;99.90
30134;DHT22;16946;49.984;10.672;2023-02-17T01:14:37;5.30;99.90
30134;DHT22;16946;49.984;10.672;2023-02-17T01:15:09;5.30;99.90
30134;DHT22;16946;49.984;10.672;2023-02-17T01:15:45;5.30;99.90
30134;DHT22;16946;49.984;10.672;2023-02-17T01:16:21;5.30;99.90
30134;DHT22;16946;49.984;10.672;2023-02-17T01:16:52;5.30;99.90
30134;DHT22;16946;49.984;10.672;2023-02-17T01:17:23;5.40;99.90
30134;DHT22;16946;49.984;10.672;2023-02-17T01:17:53;5.30;99.90
30134;DHT22;16946;49.984;10.672;2023-02-17T01:18:24;5.30;99.90
30134;DHT22;16946;49.984;10.672;2023-02-17T01:18:55;5.40;99.90
30134;DHT22;16946;49.984;10.672;2023-02-17T01:19:25;5.40;99.90
30134;DHT22;16946;49.984;10.672;2023-02-17T01:19:56;5.50;99.90
30134;DHT22;16946;49.984;10.672;2023-02-17T01:20:26;5.50;99.90
30134;DHT22;16946;49.984;10.672;2023-02-17T01:20:57;5.50;99.90
30134;DHT22;16946;49.984;10.672;2023-02-17T01:21:28;5.60;99.90
30134;DHT22;16946;49.984;10.672;2023-02-17T01:21:59;5.50;99.90
30134;DHT22;16946;49.984;10.672;2023-02-17T01:22:30;5.60;99.90
30134;DHT22;16946;49.984;10.672;2023-02-17T01:23:01;5.60;99.90
30134;DHT22;16946;49.984;10.672;2023-02-17T01:23:31;5.60;99.90
30134;DHT22;16946;49.984;10.672;2023-02-17T01:24:04;5.60;99.90
30134;DHT22;16946;49.984;10.672;2023-02-17T01:24:35;5.60;99.90
30134;DHT22;16946;49.984;10.672;2023-02-17T01:25:06;5.60;99.90
30134;DHT22;16946;49.984;10.672;2023-02-17T01:25:38;5.60;99.90
30134;DHT22;16946;49.984;10.672;2023-02-17T01:26:13;5.70;99.90
30134;DHT22;16946;49.984;10.672;2023-02-17T01:26:44;5.70;99.90
30134;DHT22;16946;49.984;10.672;2023-02-17T01:27:15;5.70;99.90
30134;DHT22;16946;49.984;10.672;2023-02-17T01:27:45;5.80;99.90
30134;DHT22;16946;49.984;10.672;2023-02-17T01:28:20;5.80;99.90
30134;DHT22;16946;49.984;10.672;2023-02-17T01:28:51;5.80;99.90
30134;DHT22;16946;49.984;10.672;2023-02-17T01:29:22;5.80;99.90
30134;DHT22;16946;49.984;10.672;2023-02-17T01:29:52;5.80;99.90
30134;DHT22;16946;49.984;10.672;2023-02-17T01:30:23;5.80;99.90
30134;DHT22;16946;49.984;10.672;2023-02-17T01:30:53;5.80;99.90
30134;DHT22;16946;49.984;10.672;2023-02-17T01:31:25;5.80;99.90
30134;DHT22;16946;49.984;10.672;2023-02-17T01:31:58;5.80;99.90
30134;DHT22;16946;49.984;10.672;2023-02-17T01:32:29;5.80;99.90
30134;DHT22;16946;49.984;10.672;2023-02-17T01:32:59;5.80;99.90
30134;DHT22;16946;49.984;10.672;2023-02-17T01:33:30;5.80;99.90
30134;DHT22;16946;49.984;10.672;2023-02-17T01:34:02;5.80;99.90
30134;DHT22;16946;49.984;10.672;2023-02-17T01:34:33;5.90;99.90
30134;DHT22;16946;49.984;10.672;2023-02-17T01:35:04;5.90;99.90
30134;DHT22;16946;49.984;10.672;2023-02-17T01:35:34;5.90;99.90
30134;DHT22;16946;49.984;10.672;2023-02-17T01:36:07;5.90;99.90
30134;DHT22;16946;49.984;10.672;2023-02-17T01:36:38;5.90;99.90
30134;DHT22;16946;49.984;10.672;2023-02-17T01:37:08;5.90;99.90
30134;DHT22;16946;49.984;10.672;2023-02-17T01:37:39;5.90;99.90
30134;DHT22;16946;49.984;10.672;2023-02-17T01:38:09;5.90;99.90
30134;DHT22;16946;49.984;10.672;2023-02-17T01:38:40;5.90;99.90
30134;DHT22;16946;49.984;10.672;2023-02-17T01:39:14;5.90;99.90
30134;DHT22;16946;49.984;10.672;2023-02-17T01:39:44;5.90;99.90
30134;DHT22;16946;49.984;10.672;2023-02-17T01:40:16;5.90;99.90
30134;DHT22;16946;49.984;10.672;2023-02-17T01:40:47;5.90;99.90
30134;DHT22;16946;49.984;10.672;2023-02-17T01:41:20;5.80;99.90
30134;DHT22;16946;49.984;10.672;2023-02-17T01:41:50;5.90;99.90
30134;DHT22;16946;49.984;10.672;2023-02-17T01:42:21;5.80;99.90
30134;DHT22;16946;49.984;10.672;2023-02-17T01:42:51;5.80;99.90
30134;DHT22;16946;49.984;10.672;2023-02-17T01:43:22;5.80;99.90
30134;DHT22;16946;49.984;10.672;2023-02-17T01:46:08;5.90;99.90
30134;DHT22;16946;49.984;10.672;2023-02-17T01:46:40;6.00;99.90
30134;DHT22;16946;49.984;10.672;2023-02-17T01:47:11;6.00;99.90
30134;DHT22;16946;49.984;10.672;2023-02-17T01:48:48;6.10;99.90
30134;DHT22;16946;49.984;10.672;2023-02-17T01:49:55;6.10;99.90
30134;DHT22;16946;49.984;10.672;2023-02-17T01:50:39;6.10;99.90
30134;DHT22;16946;49.984;10.672;2023-02-17T01:51:21;6.10;99.90
30134;DHT22;16946;49.984;10.672;2023-02-17T01:52:07;6.10;99.90
30134;DHT22;16946;49.984;10.672;2023-02-17T01:52:40;6.10;99.90
30134;DHT22;16946;49.984;10.672;2023-02-17T01:53:15;6.10;99.90
30134;DHT22;16946;49.984;10.672;2023-02-17T01:53:57;6.10;99.90
30134;DHT22;16946;49.984;10.672;2023-02-17T01:54:56;6.10;99.90
30134;DHT22;16946;49.984;10.672;2023-02-17T01:55:25;6.00;99.90
30134;DHT22;16946;49.984;10.672;2023-02-17T01:55:56;6.00;99.90
30134;DHT22;16946;49.984;10.672;2023-02-17T01:56:29;6.00;99.90
30134;DHT22;16946;49.984;10.672;2023-02-17T01:57:01;6.00;99.90
30134;DHT22;16946;49.984;10.672;2023-02-17T01:57:34;6.10;99.90
30134;DHT22;16946;49.984;10.672;2023-02-17T01:58:10;6.10;99.90
30134;DHT22;16946;49.984;10.672;2023-02-17T01:58:45;6.10;99.90
30134;DHT22;16946;49.984;10.672;2023-02-17T01:59:19;6.10;99.90
30134;DHT22;16946;49.984;10.672;2023-02-17T01:59:51;6.10;99.90
30134;DHT22;16946;49.984;10.672;2023-02-17T02:00:22;6.10;99.90
30134;DHT22;16946;49.984;10.672;2023-02-17T02:00:55;6.10;99.90
30134;DHT22;16946;49.984;10.672;2023-02-17T02:01:26;6.10;99.90
30134;DHT22;16946;49.984;10.672;2023-02-17T02:01:59;6.10;99.90
30134;DHT22;16946;49.984;10.672;2023-02-17T02:02:32;6.10;99.90
30134;DHT22;16946;49.984;10.672;2023-02-17T02:03:06;6.10;99.90
30134;DHT22;16946;49.984;10.672;2023-02-17T02:03:38;6.20;99.90
30134;DHT22;16946;49.984;10.672;2023-02-17T02:04:09;6.20;99.90
30134;DHT22;16946;49.984;10.672;2023-02-17T02:04:42;6.30;99.90
30134;DHT22;16946;49.984;10.672;2023-02-17T02:05:17;6.30;99.90
30134;DHT22;16946;49.984;10.672;2023-02-17T02:05:48;6.30;99.90
30134;DHT22;16946;49.984;10.672;2023-02-17T02:06:22;6.30;99.90
30134;DHT22;16946;49.984;10.672;2023-02-17T02:06:54;6.30;99.90
30134;DHT22;16946;49.984;10.672;2023-02-17T02:07:29;6.30;99.90
30134;DHT22;16946;49.984;10.672;2023-02-17T02:08:01;6.30;99.90
30134;DHT22;16946;49.984;10.672;2023-02-17T02:08:44;6.30;99.90
30134;DHT22;16946;49.984;10.672;2023-02-17T02:09:20;6.30;99.90
30134;DHT22;16946;49.984;10.672;2023-02-17T02:09:53;6.30;99.90
30134;DHT22;16946;49.984;10.672;2023-02-17T02:10:25;6.30;99.90
30134;DHT22;16946;49.984;10.672;2023-02-17T02:10:55;6.30;99.90
30134;DHT22;16946;49.984;10.672;2023-02-17T02:11:26;6.30;99.90
30134;DHT22;16946;49.984;10.672;2023-02-17T02:11:56;6.30;99.90
30134;DHT22;16946;49.984;10.672;2023-02-17T02:12:35;6.30;99.90
30134;DHT22;16946;49.984;10.672;2023-02-17T02:13:06;6.30;99.90
30134;DHT22;16946;49.984;10.672;2023-02-17T02:13:37;6.30;99.90
30134;DHT22;16946;49.984;10.672;2023-02-17T02:14:08;6.30;99.90
30134;DHT22;16946;49.984;10.672;2023-02-17T02:14:39;6.30;99.90
30134;DHT22;16946;49.984;10.672;2023-02-17T02:15:14;6.30;99.90
30134;DHT22;16946;49.984;10.672;2023-02-17T02:15:51;6.30;99.90
30134;DHT22;16946;49.984;10.672;2023-02-17T02:16:48;6.30;99.90
30134;DHT22;16946;49.984;10.672;2023-02-17T02:18:52;6.40;99.90
30134;DHT22;16946;49.984;10.672;2023-02-17T02:21:17;6.50;99.90
30134;DHT22;16946;49.984;10.672;2023-02-17T02:23:10;6.70;99.90
30134;DHT22;16946;49.984;10.672;2023-02-17T02:23:57;7.00;99.90
30134;DHT22;16946;49.984;10.672;2023-02-17T02:33:22;7.40;99.90
30134;DHT22;16946;49.984;10.672;2023-02-17T02:34:00;7.40;99.90
30134;DHT22;16946;49.984;10.672;2023-02-17T02:34:40;7.40;99.90
30134;DHT22;16946;49.984;10.672;2023-02-17T02:36:48;7.50;99.90
30134;DHT22;16946;49.984;10.672;2023-02-17T02:37:30;7.80;99.90
30134;DHT22;16946;49.984;10.672;2023-02-17T02:38:46;8.10;99.90
30134;DHT22;16946;49.984;10.672;2023-02-17T02:39:23;8.20;99.90
30134;DHT22;16946;49.984;10.672;2023-02-17T02:39:56;8.30;99.90
30134;DHT22;16946;49.984;10.672;2023-02-17T02:40:34;8.30;99.90
30134;DHT22;16946;49.984;10.672;2023-02-17T02:41:28;8.40;99.90
30134;DHT22;16946;49.984;10.672;2023-02-17T02:42:06;8.50;99.90
30134;DHT22;16946;49.984;10.672;2023-02-17T02:42:39;8.50;99.90
30134;DHT22;16946;49.984;10.672;2023-02-17T02:43:10;8.60;99.90
30134;DHT22;16946;49.984;10.672;2023-02-17T02:43:41;8.60;99.90
30134;DHT22;16946;49.984;10.672;2023-02-17T02:44:14;8.70;99.90
30134;DHT22;16946;49.984;10.672;2023-02-17T02:44:44;8.70;99.90
30134;DHT22;16946;49.984;10.672;2023-02-17T02:45:17;8.70;99.90
30134;DHT22;16946;49.984;10.672;2023-02-17T02:45:47;8.70;99.90
30134;DHT22;16946;49.984;10.672;2023-02-17T02:46:18;8.80;99.90
30134;DHT22;16946;49.984;10.672;2023-02-17T02:47:52;8.80;99.90
30134;DHT22;16946;49.984;10.672;2023-02-17T02:48:23;8.90;99.90
30134;DHT22;16946;49.984;10.672;2023-02-17T02:48:53;8.90;99.90
30134;DHT22;16946;49.984;10.672;2023-02-17T02:49:25;8.90;99.90
30134;DHT22;16946;49.984;10.672;2023-02-17T02:49:55;8.90;99.90
30134;DHT22;16946;49.984;10.672;2023-02-17T02:50:39;8.90;99.90
30134;DHT22;16946;49.984;10.672;2023-02-17T02:51:16;8.90;99.90
30134;DHT22;16946;49.984;10.672;2023-02-17T02:52:01;8.90;99.90
30134;DHT22;16946;49.984;10.672;2023-02-17T02:52:47;8.90;99.90
30134;DHT22;16946;49.984;10.672;2023-02-17T02:53:59;8.80;99.90
30134;DHT22;16946;49.984;10.672;2023-02-17T02:54:48;8.80;99.90
30134;DHT22;16946;49.984;10.672;2023-02-17T02:58:42;8.80;99.90
30134;DHT22;16946;49.984;10.672;2023-02-17T02:59:33;8.80;99.90
30134;DHT22;16946;49.984;10.672;2023-02-17T03:00:19;8.90;99.90
30134;DHT22;16946;49.984;10.672;2023-02-17T03:01:25;8.90;99.90
30134;DHT22;16946;49.984;10.672;2023-02-17T03:02:12;8.80;99.90
30134;DHT22;16946;49.984;10.672;2023-02-17T03:02:49;8.80;99.90
30134;DHT22;16946;49.984;10.672;2023-02-17T03:03:52;8.70;99.90
30134;DHT22;16946;49.984;10.672;2023-02-17T03:04:23;8.60;99.90
30134;DHT22;16946;49.984;10.672;2023-02-17T03:06:26;8.60;99.90
30134;DHT22;16946;49.984;10.672;2023-02-17T03:07:02;8.60;99.90
30134;DHT22;16946;49.984;10.672;2023-02-17T03:07:39;8.60;99.90
30134;DHT22;16946;49.984;10.672;2023-02-17T03:08:14;8.60;99.90
30134;DHT22;16946;49.984;10.672;2023-02-17T03:08:53;8.60;99.90
30134;DHT22;16946;49.984;10.672;2023-02-17T03:09:26;8.60;99.90
30134;DHT22;16946;49.984;10.672;2023-02-17T03:09:58;8.60;99.90
30134;DHT22;16946;49.984;10.672;2023-02-17T03:10:29;8.50;99.90
30134;DHT22;16946;49.984;10.672;2023-02-17T03:11:01;8.50;99.90
30134;DHT22;16946;49.984;10.672;2023-02-17T03:11:32;8.50;99.90
30134;DHT22;16946;49.984;10.672;2023-02-17T03:12:02;8.50;99.90
30134;DHT22;16946;49.984;10.672;2023-02-17T03:12:36;8.60;99.90
30134;DHT22;16946;49.984;10.672;2023-02-17T03:13:07;8.60;99.90
30134;DHT22;16946;49.984;10.672;2023-02-17T03:13:38;8.60;99.90
30134;DHT22;16946;49.984;10.672;2023-02-17T03:14:14;8.60;99.90
30134;DHT22;16946;49.984;10.672;2023-02-17T03:14:48;8.60;99.90
30134;DHT22;16946;49.984;10.672;2023-02-17T03:15:29;8.70;99.90
30134;DHT22;16946;49.984;10.672;2023-02-17T03:16:00;8.70;99.90
30134;DHT22;16946;49.984;10.672;2023-02-17T03:16:32;8.60;99.90
30134;DHT22;16946;49.984;10.672;2023-02-17T03:17:03;8.70;99.90
30134;DHT22;16946;49.984;10.672;2023-02-17T03:17:33;8.70;99.90
30134;DHT22;16946;49.984;10.672;2023-02-17T03:18:04;8.70;99.90
30134;DHT22;16946;49.984;10.672;2023-02-17T03:18:35;8.70;99.90
30134;DHT22;16946;49.984;10.672;2023-02-17T03:19:07;8.70;99.90
30134;DHT22;16946;49.984;10.672;2023-02-17T03:19:38;8.70;99.90
30134;DHT22;16946;49.984;10.672;2023-02-17T03:20:10;8.70;99.90
30134;DHT22;16946;49.984;10.672;2023-02-17T03:20:56;8.70;99.90
30134;DHT22;16946;49.984;10.672;2023-02-17T03:21:36;8.70;99.90
30134;DHT22;16946;49.984;10.672;2023-02-17T03:22:18;8.70;99.90
30134;DHT22;16946;49.984;10.672;2023-02-17T03:22:50;8.70;99.90
30134;DHT22;16946;49.984;10.672;2023-02-17T03:23:21;8.70;99.90
30134;DHT22;16946;49.984;10.672;2023-02-17T03:23:51;8.70;99.90
30134;DHT22;16946;49.984;10.672;2023-02-17T03:24:22;8.80;99.90
30134;DHT22;16946;49.984;10.672;2023-02-17T03:24:52;8.80;99.90
30134;DHT22;16946;49.984;10.672;2023-02-17T03:25:23;8.80;99.90
30134;DHT22;16946;49.984;10.672;2023-02-17T03:25:54;8.80;99.90
30134;DHT22;16946;49.984;10.672;2023-02-17T03:26:24;8.80;99.90
30134;DHT22;16946;49.984;10.672;2023-02-17T03:26:55;8.80;99.90
30134;DHT22;16946;49.984;10.672;2023-02-17T03:27:26;8.80;99.90
30134;DHT22;16946;49.984;10.672;2023-02-17T03:27:56;8.80;99.90
30134;DHT22;16946;49.984;10.672;2023-02-17T03:28:27;8.80;99.90
30134;DHT22;16946;49.984;10.672;2023-02-17T03:28:57;8.80;99.90
30134;DHT22;16946;49.984;10.672;2023-02-17T03:29:28;8.80;99.90
30134;DHT22;16946;49.984;10.672;2023-02-17T03:29:58;8.80;99.90
30134;DHT22;16946;49.984;10.672;2023-02-17T03:30:29;8.80;99.90
30134;DHT22;16946;49.984;10.672;2023-02-17T03:30:59;8.80;99.90
30134;DHT22;16946;49.984;10.672;2023-02-17T03:31:30;8.70;99.90
30134;DHT22;16946;49.984;10.672;2023-02-17T03:32:01;8.80;99.90
30134;DHT22;16946;49.984;10.672;2023-02-17T03:32:32;8.70;99.90
30134;DHT22;16946;49.984;10.672;2023-02-17T03:33:03;8.80;99.90
30134;DHT22;16946;49.984;10.672;2023-02-17T03:33:33;8.80;99.90
30134;DHT22;16946;49.984;10.672;2023-02-17T03:34:04;8.80;99.90
30134;DHT22;16946;49.984;10.672;2023-02-17T03:34:35;8.80;99.90
30134;DHT22;16946;49.984;10.672;2023-02-17T03:35:06;8.80;99.90
30134;DHT22;16946;49.984;10.672;2023-02-17T03:35:36;8.80;99.90
30134;DHT22;16946;49.984;10.672;2023-02-17T03:36:07;8.80;99.90
30134;DHT22;16946;49.984;10.672;2023-02-17T03:36:38;8.80;99.90
30134;DHT22;16946;49.984;10.672;2023-02-17T03:37:08;8.80;99.90
30134;DHT22;16946;49.984;10.672;2023-02-17T03:37:39;8.80;99.90
30134;DHT22;16946;49.984;10.672;2023-02-17T03:38:09;8.80;99.90
30134;DHT22;16946;49.984;10.672;2023-02-17T03:38:40;8.80;99.90
30134;DHT22;16946;49.984;10.672;2023-02-17T03:39:10;8.80;99.90
30134;DHT22;16946;49.984;10.672;2023-02-17T03:39:41;8.70;99.90
30134;DHT22;16946;49.984;10.672;2023-02-17T03:40:11;8.70;99.90
30134;DHT22;16946;49.984;10.672;2023-02-17T03:40:42;8.70;99.90
30134;DHT22;16946;49.984;10.672;2023-02-17T03:41:13;8.70;99.90
30134;DHT22;16946;49.984;10.672;2023-02-17T03:41:43;8.80;99.90
30134;DHT22;16946;49.984;10.672;2023-02-17T03:42:14;8.80;99.90
30134;DHT22;16946;49.984;10.672;2023-02-17T03:42:45;8.70;99.90
30134;DHT22;16946;49.984;10.672;2023-02-17T03:43:15;8.70;99.90
30134;DHT22;16946;49.984;10.672;2023-02-17T03:43:46;8.70;99.90
30134;DHT22;16946;49.984;10.672;2023-02-17T03:44:17;8.70;99.90
30134;DHT22;16946;49.984;10.672;2023-02-17T03:44:48;8.70;99.90
30134;DHT22;16946;49.984;10.672;2023-02-17T03:45:18;8.70;99.90
30134;DHT22;16946;49.984;10.672;2023-02-17T03:45:49;8.70;99.90
30134;DHT22;16946;49.984;10.672;2023-02-17T03:46:19;8.70;99.90
30134;DHT22;16946;49.984;10.672;2023-02-17T03:46:50;8.70;99.90
30134;DHT22;16946;49.984;10.672;2023-02-17T03:47:21;8.80;99.90
30134;DHT22;16946;49.984;10.672;2023-02-17T03:47:51;8.80;99.90
30134;DHT22;16946;49.984;10.672;2023-02-17T03:48:22;8.70;99.90
30134;DHT22;16946;49.984;10.672;2023-02-17T03:48:52;8.70;99.90
30134;DHT22;16946;49.984;10.672;2023-02-17T03:49:23;8.80;99.90
30134;DHT22;16946;49.984;10.672;2023-02-17T03:49:53;8.80;99.90
30134;DHT22;16946;49.984;10.672;2023-02-17T03:50:24;8.80;99.90
30134;DHT22;16946;49.984;10.672;2023-02-17T03:50:55;8.80;99.90
30134;DHT22;16946;49.984;10.672;2023-02-17T03:51:25;8.80;99.90
30134;DHT22;16946;49.984;10.672;2023-02-17T03:51:56;8.80;99.90